createdAt,value
2019-02-16T00:00:09.930Z,1016.40
2019-02-16T00:01:09.918Z,1016.42
2019-02-16T00:02:09.903Z,1016.41
2019-02-16T00:03:09.896Z,1016.43
2019-02-16T00:04:09.889Z,1016.42
2019-02-16T00:05:09.873Z,1016.39
2019-02-16T00:06:09.864Z,1016.40
2019-02-16T00:07:09.853Z,1016.40
2019-02-16T00:08:09.842Z,1016.43
2019-02-16T00:09:09.842Z,1016.49
2019-02-16T00:10:09.817Z,1016.46
2019-02-16T00:11:09.799Z,1016.49
2019-02-16T00:12:09.793Z,1016.46
2019-02-16T00:13:09.786Z,1016.47
2019-02-16T00:14:09.775Z,1016.44
2019-02-16T00:15:09.759Z,1016.44
2019-02-16T00:16:09.779Z,1016.43
2019-02-16T00:17:09.738Z,1016.43
2019-02-16T00:18:09.726Z,1016.42
2019-02-16T00:19:09.715Z,1016.40
2019-02-16T00:20:09.709Z,1016.44
2019-02-16T00:21:09.708Z,1016.42
2019-02-16T00:22:09.682Z,1016.42
2019-02-16T00:23:09.706Z,1016.44
2019-02-16T00:24:09.667Z,1016.43
2019-02-16T00:25:09.642Z,1016.46
2019-02-16T00:26:09.635Z,1016.38
2019-02-16T00:27:09.650Z,1016.38
2019-02-16T00:28:09.605Z,1016.39
2019-02-16T00:29:09.603Z,1016.41
2019-02-16T00:30:09.593Z,1016.44
2019-02-16T00:31:09.582Z,1016.45
2019-02-16T00:32:09.570Z,1016.43
2019-02-16T00:33:09.556Z,1016.44
2019-02-16T00:34:09.557Z,1016.40
2019-02-16T00:35:09.537Z,1016.37
2019-02-16T00:36:09.517Z,1016.41
2019-02-16T00:37:09.518Z,1016.42
2019-02-16T00:38:09.500Z,1016.42
2019-02-16T00:39:09.495Z,1016.45
2019-02-16T00:40:09.479Z,1016.44
2019-02-16T00:41:09.495Z,1016.42
2019-02-16T00:42:09.452Z,1016.44
2019-02-16T00:43:09.439Z,1016.44
2019-02-16T00:44:09.437Z,1016.48
2019-02-16T00:45:09.418Z,1016.48
2019-02-16T00:46:09.416Z,1016.47
2019-02-16T00:47:09.398Z,1016.48
2019-02-16T00:48:09.384Z,1016.47
2019-02-16T00:49:09.393Z,1016.47
2019-02-16T00:50:09.363Z,1016.45
2019-02-16T00:51:13.533Z,1016.43
2019-02-16T00:52:09.348Z,1016.47
2019-02-16T00:53:09.331Z,1016.48
2019-02-16T00:54:09.317Z,1016.50
2019-02-16T00:55:09.307Z,1016.50
2019-02-16T00:56:09.325Z,1016.47
2019-02-16T00:57:09.286Z,1016.47
2019-02-16T00:58:09.275Z,1016.50
2019-02-16T00:59:09.263Z,1016.48
2019-02-16T01:00:09.257Z,1016.46
2019-02-16T01:01:09.245Z,1016.48
2019-02-16T01:02:09.223Z,1016.48
2019-02-16T01:03:09.216Z,1016.46
2019-02-16T01:04:09.208Z,1016.48
2019-02-16T01:05:09.190Z,1016.46
2019-02-16T01:06:09.183Z,1016.46
2019-02-16T01:07:09.163Z,1016.47
2019-02-16T01:08:09.159Z,1016.47
2019-02-16T01:09:09.155Z,1016.46
2019-02-16T01:10:09.133Z,1016.44
2019-02-16T01:11:09.125Z,1016.44
2019-02-16T01:12:09.116Z,1016.46
2019-02-16T01:13:09.101Z,1016.42
2019-02-16T01:14:09.088Z,1016.40
2019-02-16T01:15:09.096Z,1016.39
2019-02-16T01:16:09.064Z,1016.38
2019-02-16T01:17:09.055Z,1016.39
2019-02-16T01:18:09.304Z,1016.38
2019-02-16T01:19:17.774Z,1016.39
2019-02-16T01:21:02.957Z,1016.34
2019-02-16T01:22:02.914Z,1016.38
2019-02-16T01:24:07.374Z,1016.39
2019-02-16T01:25:07.366Z,1016.42
2019-02-16T01:26:07.355Z,1016.40
2019-02-16T01:27:07.343Z,1016.42
2019-02-16T01:28:07.322Z,1016.41
2019-02-16T01:29:07.312Z,1016.42
2019-02-16T01:30:07.302Z,1016.43
2019-02-16T01:31:07.294Z,1016.39
2019-02-16T01:32:07.278Z,1016.38
2019-02-16T01:33:07.274Z,1016.40
2019-02-16T01:34:07.257Z,1016.42
2019-02-16T01:35:07.248Z,1016.40
2019-02-16T01:36:07.254Z,1016.41
2019-02-16T01:37:07.226Z,1016.43
2019-02-16T01:38:07.211Z,1016.44
2019-02-16T01:39:07.211Z,1016.42
2019-02-16T01:40:07.191Z,1016.43
2019-02-16T01:41:07.177Z,1016.49
2019-02-16T01:42:07.166Z,1016.48
2019-02-16T01:43:07.148Z,1016.47
2019-02-16T01:44:07.142Z,1016.46
2019-02-16T01:45:07.127Z,1016.46
2019-02-16T01:46:07.119Z,1016.43
2019-02-16T01:47:07.179Z,1016.42
2019-02-16T01:48:07.095Z,1016.42
2019-02-16T01:49:07.128Z,1016.47
2019-02-16T01:50:07.069Z,1016.43
2019-02-16T01:51:07.081Z,1016.48
2019-02-16T01:52:07.048Z,1016.48
2019-02-16T01:53:07.037Z,1016.47
2019-02-16T01:54:07.025Z,1016.46
2019-02-16T01:55:07.017Z,1016.45
2019-02-16T01:56:07.000Z,1016.47
2019-02-16T01:57:06.990Z,1016.47
2019-02-16T01:58:06.982Z,1016.50
2019-02-16T01:59:06.969Z,1016.54
2019-02-16T02:00:06.949Z,1016.51
2019-02-16T02:01:06.948Z,1016.51
2019-02-16T02:02:06.930Z,1016.51
2019-02-16T02:03:06.924Z,1016.56
2019-02-16T02:04:06.909Z,1016.53
2019-02-16T02:05:06.894Z,1016.52
2019-02-16T02:06:06.884Z,1016.54
2019-02-16T02:07:06.866Z,1016.57
2019-02-16T02:08:06.856Z,1016.56
2019-02-16T02:09:06.846Z,1016.56
2019-02-16T02:10:06.860Z,1016.56
2019-02-16T02:11:06.822Z,1016.54
2019-02-16T02:12:06.809Z,1016.57
2019-02-16T02:13:06.797Z,1016.57
2019-02-16T02:14:06.788Z,1016.53
2019-02-16T02:15:06.777Z,1016.55
2019-02-16T02:16:06.764Z,1016.55
2019-02-16T02:17:06.749Z,1016.53
2019-02-16T02:18:06.754Z,1016.49
2019-02-16T02:19:06.723Z,1016.46
2019-02-16T02:20:06.710Z,1016.46
2019-02-16T02:21:06.711Z,1016.49
2019-02-16T02:22:06.686Z,1016.48
2019-02-16T02:23:06.677Z,1016.49
2019-02-16T02:24:06.667Z,1016.47
2019-02-16T02:25:06.661Z,1016.45
2019-02-16T02:26:06.636Z,1016.50
2019-02-16T02:27:06.631Z,1016.46
2019-02-16T02:28:06.632Z,1016.47
2019-02-16T02:29:06.602Z,1016.47
2019-02-16T02:30:06.594Z,1016.44
2019-02-16T02:31:06.647Z,1016.40
2019-02-16T02:32:06.571Z,1016.42
2019-02-16T02:33:06.560Z,1016.38
2019-02-16T02:34:06.538Z,1016.36
2019-02-16T02:35:06.534Z,1016.31
2019-02-16T02:36:06.518Z,1016.29
2019-02-16T02:37:06.521Z,1016.31
2019-02-16T02:38:06.511Z,1016.29
2019-02-16T02:39:06.489Z,1016.27
2019-02-16T02:40:06.533Z,1016.26
2019-02-16T02:41:06.461Z,1016.24
2019-02-16T02:42:06.446Z,1016.21
2019-02-16T02:43:06.437Z,1016.21
2019-02-16T02:44:06.419Z,1016.22
2019-02-16T02:45:06.414Z,1016.22
2019-02-16T02:46:06.407Z,1016.21
2019-02-16T02:47:06.383Z,1016.20
2019-02-16T02:48:06.375Z,1016.20
2019-02-16T02:49:06.365Z,1016.25
2019-02-16T02:50:06.343Z,1016.21
2019-02-16T02:51:06.332Z,1016.21
2019-02-16T02:52:06.340Z,1016.20
2019-02-16T02:53:06.313Z,1016.21
2019-02-16T02:54:06.301Z,1016.18
2019-02-16T02:55:06.287Z,1016.19
2019-02-16T03:13:41.246Z,1016.24
2019-02-16T03:14:41.200Z,1016.24
2019-02-16T03:15:41.183Z,1016.20
2019-02-16T03:16:41.181Z,1016.24
2019-02-16T03:17:41.146Z,1016.22
2019-02-16T03:18:41.146Z,1016.22
2019-02-16T03:19:41.120Z,1016.18
2019-02-16T03:20:41.106Z,1016.20
2019-02-16T03:21:41.098Z,1016.20
2019-02-16T03:22:41.072Z,1016.16
2019-02-16T03:23:41.062Z,1016.16
2019-02-16T03:24:41.051Z,1016.13
2019-02-16T03:25:41.032Z,1016.12
2019-02-16T03:26:41.019Z,1016.13
2019-02-16T03:27:41.002Z,1016.09
2019-02-16T03:28:40.991Z,1016.14
2019-02-16T03:29:40.984Z,1016.14
2019-02-16T03:30:40.971Z,1016.14
2019-02-16T03:31:40.967Z,1016.13
2019-02-16T03:32:40.942Z,1016.10
2019-02-16T03:33:40.923Z,1016.13
2019-02-16T03:34:40.917Z,1016.12
2019-02-16T03:35:40.907Z,1016.11
2019-02-16T03:36:40.883Z,1016.16
2019-02-16T03:37:40.873Z,1016.14
2019-02-16T03:38:40.864Z,1016.19
2019-02-16T03:39:40.850Z,1016.20
2019-02-16T03:40:40.838Z,1016.21
2019-02-16T03:41:40.822Z,1016.21
2019-02-16T03:42:40.820Z,1016.20
2019-02-16T03:43:40.793Z,1016.23
2019-02-16T03:44:40.784Z,1016.21
2019-02-16T03:45:40.774Z,1016.23
2019-02-16T03:46:40.760Z,1016.33
2019-02-16T03:47:40.755Z,1016.26
2019-02-16T03:48:40.732Z,1016.31
2019-02-16T03:49:40.786Z,1016.30
2019-02-16T03:50:40.706Z,1016.31
2019-02-16T03:51:40.702Z,1016.30
2019-02-16T03:52:40.681Z,1016.32
2019-02-16T03:53:40.691Z,1016.31
2019-02-16T03:54:40.659Z,1016.30
2019-02-16T03:55:40.715Z,1016.30
2019-02-16T03:56:40.643Z,1016.29
2019-02-16T03:57:40.655Z,1016.32
2019-02-16T03:58:40.609Z,1016.30
2019-02-16T03:59:40.597Z,1016.31
2019-02-16T04:00:40.606Z,1016.29
2019-02-16T04:01:40.569Z,1016.34
2019-02-16T04:02:40.560Z,1016.31
2019-02-16T04:03:40.544Z,1016.30
2019-02-16T04:04:40.532Z,1016.29
2019-02-16T04:05:40.518Z,1016.34
2019-02-16T04:06:40.498Z,1016.28
2019-02-16T04:07:40.489Z,1016.32
2019-02-16T04:08:40.489Z,1016.33
2019-02-16T04:09:40.462Z,1016.32
2019-02-16T04:10:40.459Z,1016.30
2019-02-16T04:11:40.441Z,1016.27
2019-02-16T04:12:40.430Z,1016.32
2019-02-16T04:13:40.417Z,1016.30
2019-02-16T04:14:40.404Z,1016.32
2019-02-16T04:15:40.388Z,1016.34
2019-02-16T04:16:40.378Z,1016.34
2019-02-16T04:17:40.377Z,1016.33
2019-02-16T04:18:40.378Z,1016.36
2019-02-16T04:19:40.336Z,1016.36
2019-02-16T04:20:40.330Z,1016.39
2019-02-16T04:21:40.313Z,1016.40
2019-02-16T04:22:40.304Z,1016.36
2019-02-16T04:23:40.286Z,1016.36
2019-02-16T04:24:40.270Z,1016.39
2019-02-16T04:25:40.263Z,1016.36
2019-02-16T04:26:40.685Z,1016.42
2019-02-16T04:27:40.232Z,1016.40
2019-02-16T04:28:40.238Z,1016.41
2019-02-16T04:29:40.209Z,1016.42
2019-02-16T04:30:40.204Z,1016.42
2019-02-16T04:31:40.181Z,1016.42
2019-02-16T04:32:40.177Z,1016.46
2019-02-16T04:33:40.185Z,1016.42
2019-02-16T04:34:40.148Z,1016.48
2019-02-16T04:35:40.137Z,1016.44
2019-02-16T04:36:40.138Z,1016.45
2019-02-16T04:37:40.106Z,1016.46
2019-02-16T04:38:40.097Z,1016.44
2019-02-16T04:39:40.085Z,1016.47
2019-02-16T04:40:40.070Z,1016.44
2019-02-16T04:41:40.064Z,1016.46
2019-02-16T04:42:40.043Z,1016.45
2019-02-16T04:43:40.036Z,1016.43
2019-02-16T04:44:40.025Z,1016.42
2019-02-16T04:45:40.007Z,1016.45
2019-02-16T04:46:40.000Z,1016.42
2019-02-16T04:47:39.981Z,1016.41
2019-02-16T04:48:39.967Z,1016.36
2019-02-16T04:49:39.963Z,1016.34
2019-02-16T04:50:39.961Z,1016.33
2019-02-16T04:51:39.957Z,1016.31
2019-02-16T04:52:39.917Z,1016.36
2019-02-16T04:53:39.907Z,1016.36
2019-02-16T04:54:40.436Z,1016.37
2019-02-16T04:55:39.887Z,1016.33
2019-02-16T04:56:39.893Z,1016.37
2019-02-16T04:57:39.856Z,1016.33
2019-02-16T04:58:39.838Z,1016.31
2019-02-16T04:59:39.825Z,1016.33
2019-02-16T05:00:39.817Z,1016.31
2019-02-16T05:01:39.808Z,1016.32
2019-02-16T05:02:39.790Z,1016.29
2019-02-16T05:03:39.776Z,1016.25
2019-02-16T05:04:39.764Z,1016.27
2019-02-16T05:05:39.748Z,1016.27
2019-02-16T05:06:39.756Z,1016.25
2019-02-16T05:07:39.727Z,1016.25
2019-02-16T05:08:39.723Z,1016.28
2019-02-16T05:09:39.709Z,1016.26
2019-02-16T05:10:39.692Z,1016.29
2019-02-16T05:11:39.676Z,1016.27
2019-02-16T05:12:39.675Z,1016.24
2019-02-16T05:13:39.645Z,1016.25
2019-02-16T05:14:39.632Z,1016.25
2019-02-16T05:15:39.622Z,1016.26
2019-02-16T05:16:39.622Z,1016.27
2019-02-16T05:17:39.631Z,1016.23
2019-02-16T05:18:39.580Z,1016.22
2019-02-16T05:19:39.573Z,1016.21
2019-02-16T05:20:39.562Z,1016.23
2019-02-16T05:21:39.542Z,1016.25
2019-02-16T05:22:44.643Z,1016.27
2019-02-16T05:23:39.513Z,1016.26
2019-02-16T05:24:39.506Z,1016.25
2019-02-16T05:25:39.487Z,1016.27
2019-02-16T05:26:39.481Z,1016.28
2019-02-16T05:27:39.466Z,1016.26
2019-02-16T05:28:39.473Z,1016.29
2019-02-16T05:29:39.437Z,1016.26
2019-02-16T05:30:39.431Z,1016.27
2019-02-16T05:31:39.411Z,1016.24
2019-02-16T05:32:39.417Z,1016.26
2019-02-16T05:33:39.388Z,1016.23
2019-02-16T05:34:39.372Z,1016.23
2019-02-16T05:35:39.365Z,1016.21
2019-02-16T05:36:39.345Z,1016.21
2019-02-16T05:37:39.330Z,1016.19
2019-02-16T05:38:39.315Z,1016.16
2019-02-16T05:39:39.304Z,1016.21
2019-02-16T05:40:39.286Z,1016.19
2019-02-16T05:41:39.277Z,1016.20
2019-02-16T05:42:39.261Z,1016.20
2019-02-16T05:43:39.257Z,1016.21
2019-02-16T05:44:39.236Z,1016.18
2019-02-16T05:45:39.228Z,1016.20
2019-02-16T05:46:39.211Z,1016.15
2019-02-16T05:47:39.201Z,1016.21
2019-02-16T05:48:39.202Z,1016.18
2019-02-16T05:49:39.172Z,1016.18
2019-02-16T05:50:39.161Z,1016.25
2019-02-16T05:51:39.154Z,1016.24
2019-02-16T05:52:39.138Z,1016.24
2019-02-16T05:53:39.120Z,1016.28
2019-02-16T05:54:39.103Z,1016.23
2019-02-16T05:55:39.091Z,1016.25
2019-02-16T05:56:39.081Z,1016.26
2019-02-16T05:57:39.068Z,1016.25
2019-02-16T05:58:39.052Z,1016.24
2019-02-16T05:59:39.031Z,1016.30
2019-02-16T06:00:39.023Z,1016.27
2019-02-16T06:01:39.011Z,1016.25
2019-02-16T06:02:38.992Z,1016.26
2019-02-16T06:03:38.982Z,1016.28
2019-02-16T06:04:38.972Z,1016.26
2019-02-16T06:05:40.802Z,1016.27
2019-02-16T06:06:38.953Z,1016.30
2019-02-16T06:07:38.934Z,1016.28
2019-02-16T06:08:38.916Z,1016.24
2019-02-16T06:09:38.988Z,1016.25
2019-02-16T06:10:48.562Z,1016.23
2019-02-16T06:12:43.364Z,1016.26
2019-02-16T06:13:43.341Z,1016.26
2019-02-16T06:14:43.323Z,1016.25
2019-02-16T06:15:43.309Z,1016.32
2019-02-16T06:16:43.297Z,1016.29
2019-02-16T06:17:43.300Z,1016.26
2019-02-16T06:18:43.278Z,1016.32
2019-02-16T06:19:43.254Z,1016.36
2019-02-16T06:20:43.245Z,1016.36
2019-02-16T06:21:43.233Z,1016.37
2019-02-16T06:22:43.234Z,1016.37
2019-02-16T06:23:43.207Z,1016.39
2019-02-16T06:24:43.192Z,1016.35
2019-02-16T06:25:43.177Z,1016.37
2019-02-16T06:26:43.161Z,1016.40
2019-02-16T06:27:43.148Z,1016.42
2019-02-16T06:28:43.138Z,1016.43
2019-02-16T06:29:43.125Z,1016.40
2019-02-16T06:30:43.108Z,1016.38
2019-02-16T06:31:43.091Z,1016.39
2019-02-16T06:32:43.090Z,1016.42
2019-02-16T06:33:43.067Z,1016.40
2019-02-16T06:34:43.054Z,1016.43
2019-02-16T06:35:43.049Z,1016.40
2019-02-16T06:36:43.029Z,1016.45
2019-02-16T06:37:43.020Z,1016.44
2019-02-16T06:38:43.008Z,1016.47
2019-02-16T06:39:42.990Z,1016.46
2019-02-16T06:40:42.978Z,1016.49
2019-02-16T06:41:42.964Z,1016.51
2019-02-16T06:42:42.955Z,1016.52
2019-02-16T06:43:42.931Z,1016.48
2019-02-16T06:44:42.920Z,1016.52
2019-02-16T06:45:42.904Z,1016.50
2019-02-16T06:46:42.888Z,1016.48
2019-02-16T06:47:42.876Z,1016.47
2019-02-16T06:48:42.863Z,1016.49
2019-02-16T06:49:42.858Z,1016.49
2019-02-16T06:50:42.856Z,1016.49
2019-02-16T06:51:42.823Z,1016.47
2019-02-16T06:52:42.811Z,1016.53
2019-02-16T06:53:42.796Z,1016.56
2019-02-16T06:54:42.783Z,1016.54
2019-02-16T06:55:42.788Z,1016.58
2019-02-16T06:56:42.762Z,1016.59
2019-02-16T06:57:42.750Z,1016.61
2019-02-16T06:58:42.732Z,1016.62
2019-02-16T06:59:42.722Z,1016.68
2019-02-16T07:00:42.705Z,1016.67
2019-02-16T07:01:42.688Z,1016.68
2019-02-16T07:02:42.690Z,1016.70
2019-02-16T07:03:42.663Z,1016.72
2019-02-16T07:04:42.652Z,1016.71
2019-02-16T07:05:42.626Z,1016.68
2019-02-16T07:06:42.712Z,1016.73
2019-02-16T07:07:42.609Z,1016.72
2019-02-16T07:08:44.159Z,1016.71
2019-02-16T07:09:42.579Z,1016.70
2019-02-16T07:10:42.569Z,1016.72
2019-02-16T07:11:42.551Z,1016.74
2019-02-16T07:12:42.546Z,1016.72
2019-02-16T07:13:42.528Z,1016.73
2019-02-16T07:14:42.517Z,1016.74
2019-02-16T07:15:42.503Z,1016.78
2019-02-16T07:16:42.493Z,1016.78
2019-02-16T07:17:42.505Z,1016.83
2019-02-16T07:18:42.462Z,1016.84
2019-02-16T07:19:42.461Z,1016.84
2019-02-16T07:20:42.445Z,1016.85
2019-02-16T07:21:42.441Z,1016.90
2019-02-16T07:22:42.444Z,1016.87
2019-02-16T07:23:42.450Z,1016.94
2019-02-16T07:24:42.382Z,1016.94
2019-02-16T07:25:42.373Z,1016.90
2019-02-16T07:26:42.361Z,1016.94
2019-02-16T07:27:42.360Z,1016.99
2019-02-16T07:28:42.438Z,1016.98
2019-02-16T07:29:42.316Z,1016.99
2019-02-16T07:30:42.317Z,1016.96
2019-02-16T07:31:42.292Z,1016.96
2019-02-16T07:32:42.289Z,1016.95
2019-02-16T07:33:42.267Z,1016.95
2019-02-16T07:34:42.256Z,1016.98
2019-02-16T07:35:42.241Z,1016.95
2019-02-16T07:36:42.222Z,1016.99
2019-02-16T07:37:42.228Z,1016.99
2019-02-16T07:38:42.203Z,1016.99
2019-02-16T07:39:42.188Z,1017.01
2019-02-16T07:40:42.173Z,1017.03
2019-02-16T07:41:42.177Z,1017.05
2019-02-16T07:42:42.168Z,1017.05
2019-02-16T07:43:42.137Z,1017.06
2019-02-16T07:44:42.124Z,1017.06
2019-02-16T07:45:42.116Z,1017.08
2019-02-16T07:46:42.095Z,1017.13
2019-02-16T07:47:42.080Z,1017.04
2019-02-16T07:48:42.070Z,1017.08
2019-02-16T07:49:42.057Z,1017.05
2019-02-16T07:50:42.042Z,1017.06
2019-02-16T07:51:42.033Z,1017.04
2019-02-16T07:52:42.027Z,1017.07
2019-02-16T07:53:42.008Z,1017.02
2019-02-16T07:54:41.989Z,1017.01
2019-02-16T07:55:42.236Z,1017.01
2019-02-16T07:56:41.973Z,1016.98
2019-02-16T07:57:41.989Z,1016.98
2019-02-16T07:58:41.940Z,1016.98
2019-02-16T07:59:41.934Z,1016.99
2019-02-16T08:00:41.918Z,1017.00
2019-02-16T08:01:41.937Z,1017.03
2019-02-16T08:02:41.895Z,1017.02
2019-02-16T08:03:41.882Z,1017.06
2019-02-16T08:04:41.870Z,1017.04
2019-02-16T08:05:41.854Z,1017.06
2019-02-16T08:06:41.843Z,1017.02
2019-02-16T08:07:42.877Z,1017.04
2019-02-16T08:08:41.823Z,1017.03
2019-02-16T08:09:41.806Z,1017.04
2019-02-16T08:10:41.795Z,1017.05
2019-02-16T08:11:41.778Z,1017.06
2019-02-16T08:12:41.772Z,1017.04
2019-02-16T08:13:41.763Z,1017.07
2019-02-16T08:14:41.766Z,1017.07
2019-02-16T08:15:41.729Z,1017.08
2019-02-16T08:16:41.715Z,1017.06
2019-02-16T08:17:41.720Z,1017.10
2019-02-16T08:18:41.698Z,1017.09
2019-02-16T08:19:41.705Z,1017.12
2019-02-16T08:20:41.672Z,1017.12
2019-02-16T08:21:41.656Z,1017.14
2019-02-16T08:22:41.653Z,1017.12
2019-02-16T08:23:41.648Z,1017.08
2019-02-16T08:24:41.640Z,1017.06
2019-02-16T08:25:41.607Z,1017.10
2019-02-16T08:26:41.631Z,1017.11
2019-02-16T08:27:41.587Z,1017.10
2019-02-16T08:28:41.579Z,1017.13
2019-02-16T08:29:41.561Z,1017.09
2019-02-16T08:30:41.571Z,1017.10
2019-02-16T08:31:41.538Z,1017.07
2019-02-16T08:32:41.541Z,1017.08
2019-02-16T08:33:41.520Z,1017.03
2019-02-16T08:34:41.505Z,1017.02
2019-02-16T08:35:41.501Z,1017.05
2019-02-16T08:36:41.516Z,1017.04
2019-02-16T08:37:41.471Z,1016.99
2019-02-16T08:38:41.464Z,1016.95
2019-02-16T08:39:41.447Z,1016.94
2019-02-16T08:40:41.440Z,1016.92
2019-02-16T08:41:41.432Z,1016.92
2019-02-16T08:42:41.423Z,1016.93
2019-02-16T08:43:41.415Z,1016.91
2019-02-16T08:44:41.398Z,1016.90
2019-02-16T08:45:41.386Z,1016.91
2019-02-16T08:46:41.375Z,1016.93
2019-02-16T08:47:41.374Z,1016.90
2019-02-16T08:48:41.346Z,1016.89
2019-02-16T08:49:41.332Z,1016.88
2019-02-16T08:50:41.339Z,1016.89
2019-02-16T08:51:41.318Z,1016.88
2019-02-16T08:52:41.320Z,1016.88
2019-02-16T08:53:49.619Z,1016.88
2019-02-16T08:54:41.279Z,1016.89
2019-02-16T08:55:41.271Z,1016.86
2019-02-16T08:56:41.259Z,1016.87
2019-02-16T08:57:41.259Z,1016.91
2019-02-16T08:58:41.258Z,1016.89
2019-02-16T08:59:41.224Z,1016.89
2019-02-16T09:00:41.239Z,1016.86
2019-02-16T09:01:41.242Z,1016.88
2019-02-16T09:02:41.217Z,1016.88
2019-02-16T09:03:41.183Z,1016.91
2019-02-16T09:04:41.174Z,1016.88
2019-02-16T09:05:41.161Z,1016.88
2019-02-16T09:06:41.152Z,1016.88
2019-02-16T09:07:41.143Z,1016.87
2019-02-16T09:08:41.142Z,1016.84
2019-02-16T09:09:41.127Z,1016.87
2019-02-16T09:10:41.353Z,1016.83
2019-02-16T09:11:41.106Z,1016.80
2019-02-16T09:12:41.091Z,1016.79
2019-02-16T09:13:41.085Z,1016.80
2019-02-16T09:14:41.123Z,1016.73
2019-02-16T09:15:41.059Z,1016.66
2019-02-16T09:16:41.060Z,1016.69
2019-02-16T09:17:41.041Z,1016.72
2019-02-16T09:18:41.029Z,1016.64
2019-02-16T09:19:41.017Z,1016.64
2019-02-16T09:20:41.243Z,1016.66
2019-02-16T09:21:41.007Z,1016.63
2019-02-16T09:22:40.989Z,1016.66
2019-02-16T09:23:40.981Z,1016.67
2019-02-16T09:24:41.032Z,1016.69
2019-02-16T09:25:40.957Z,1016.68
2019-02-16T09:26:40.965Z,1016.70
2019-02-16T09:27:41.828Z,1016.70
2019-02-16T09:28:40.924Z,1016.68
2019-02-16T09:29:40.920Z,1016.69
2019-02-16T09:30:40.916Z,1016.68
2019-02-16T09:31:40.893Z,1016.67
2019-02-16T09:32:40.888Z,1016.63
2019-02-16T09:33:40.892Z,1016.63
2019-02-16T09:34:40.870Z,1016.64
2019-02-16T09:35:40.861Z,1016.62
2019-02-16T09:36:40.850Z,1016.66
2019-02-16T09:37:40.843Z,1016.62
2019-02-16T09:38:40.827Z,1016.66
2019-02-16T09:39:40.818Z,1016.68
2019-02-16T09:40:40.810Z,1016.70
2019-02-16T09:41:40.799Z,1016.66
2019-02-16T09:42:40.791Z,1016.68
2019-02-16T09:43:40.785Z,1016.65
2019-02-16T09:44:40.773Z,1016.66
2019-02-16T09:45:40.760Z,1016.66
2019-02-16T09:46:40.754Z,1016.66
2019-02-16T09:47:40.744Z,1016.66
2019-02-16T09:48:40.733Z,1016.64
2019-02-16T09:49:40.731Z,1016.64
2019-02-16T09:50:40.717Z,1016.63
2019-02-16T09:51:40.713Z,1016.64
2019-02-16T09:52:40.704Z,1016.66
2019-02-16T09:53:40.779Z,1016.64
2019-02-16T09:54:40.687Z,1016.63
2019-02-16T09:55:40.662Z,1016.61
2019-02-16T09:56:40.661Z,1016.64
2019-02-16T09:57:40.653Z,1016.61
2019-02-16T09:58:40.639Z,1016.62
2019-02-16T09:59:40.634Z,1016.60
2019-02-16T10:00:40.675Z,1016.64
2019-02-16T10:01:40.618Z,1016.65
2019-02-16T10:02:40.605Z,1016.61
2019-02-16T10:03:40.592Z,1016.61
2019-02-16T10:04:40.588Z,1016.63
2019-02-16T10:05:40.580Z,1016.65
2019-02-16T10:06:40.565Z,1016.63
2019-02-16T10:07:40.549Z,1016.63
2019-02-16T10:08:40.549Z,1016.62
2019-02-16T10:09:40.598Z,1016.64
2019-02-16T10:10:41.675Z,1016.65
2019-02-16T10:11:40.528Z,1016.68
2019-02-16T10:12:40.508Z,1016.72
2019-02-16T10:13:40.503Z,1016.68
2019-02-16T10:14:40.494Z,1016.70
2019-02-16T10:15:40.483Z,1016.71
2019-02-16T10:16:40.479Z,1016.69
2019-02-16T10:17:40.467Z,1016.69
2019-02-16T10:18:40.459Z,1016.70
2019-02-16T10:19:40.809Z,1016.69
2019-02-16T10:20:40.581Z,1016.67
2019-02-16T10:21:40.530Z,1016.71
2019-02-16T10:22:40.424Z,1016.69
2019-02-16T10:23:40.437Z,1016.68
2019-02-16T10:24:40.439Z,1016.68
2019-02-16T10:25:40.400Z,1016.68
2019-02-16T10:26:40.387Z,1016.67
2019-02-16T10:27:40.377Z,1016.67
2019-02-16T10:28:40.377Z,1016.70
2019-02-16T10:29:40.368Z,1016.75
2019-02-16T10:30:40.366Z,1016.68
2019-02-16T10:31:40.352Z,1016.70
2019-02-16T10:32:40.341Z,1016.67
2019-02-16T10:33:40.334Z,1016.73
2019-02-16T10:34:40.339Z,1016.71
2019-02-16T10:35:40.343Z,1016.71
2019-02-16T10:36:40.306Z,1016.71
2019-02-16T10:37:40.317Z,1016.72
2019-02-16T10:38:40.294Z,1016.74
2019-02-16T10:39:40.284Z,1016.71
2019-02-16T10:40:40.273Z,1016.73
2019-02-16T10:41:40.270Z,1016.71
2019-02-16T10:42:40.255Z,1016.71
2019-02-16T10:43:40.261Z,1016.73
2019-02-16T10:44:40.264Z,1016.73
2019-02-16T10:45:40.230Z,1016.73
2019-02-16T10:46:40.287Z,1016.73
2019-02-16T10:47:40.221Z,1016.71
2019-02-16T10:48:40.212Z,1016.75
2019-02-16T10:49:40.198Z,1016.70
2019-02-16T10:50:40.185Z,1016.69
2019-02-16T10:51:40.181Z,1016.70
2019-02-16T10:52:40.176Z,1016.72
2019-02-16T10:53:40.165Z,1016.74
2019-02-16T10:54:40.158Z,1016.73
2019-02-16T10:55:40.150Z,1016.73
2019-02-16T10:56:40.176Z,1016.73
2019-02-16T10:57:40.165Z,1016.73
2019-02-16T10:58:40.150Z,1016.68
2019-02-16T10:59:40.120Z,1016.65
2019-02-16T11:00:40.113Z,1016.63
2019-02-16T11:01:40.144Z,1016.63
2019-02-16T11:02:40.102Z,1016.62
2019-02-16T11:03:40.141Z,1016.58
2019-02-16T11:04:40.101Z,1016.58
2019-02-16T11:05:40.063Z,1016.58
2019-02-16T11:06:40.060Z,1016.55
2019-02-16T11:07:40.049Z,1016.55
2019-02-16T11:08:40.042Z,1016.48
2019-02-16T11:09:48.680Z,1016.51
2019-02-16T11:11:33.456Z,1016.43
2019-02-16T11:12:33.423Z,1016.42
2019-02-16T11:13:33.415Z,1016.41
2019-02-16T11:14:33.403Z,1016.42
2019-02-16T11:15:33.417Z,1016.44
2019-02-16T11:16:33.394Z,1016.39
2019-02-16T11:17:33.418Z,1016.42
2019-02-16T11:18:33.372Z,1016.35
2019-02-16T11:19:33.364Z,1016.41
2019-02-16T11:20:33.360Z,1016.39
2019-02-16T11:21:33.348Z,1016.42
2019-02-16T11:22:33.352Z,1016.40
2019-02-16T11:23:33.335Z,1016.39
2019-02-16T11:24:36.128Z,1016.41
2019-02-16T11:25:33.317Z,1016.37
2019-02-16T11:26:33.510Z,1016.36
2019-02-16T11:27:33.303Z,1016.33
2019-02-16T11:28:33.291Z,1016.30
2019-02-16T11:29:33.308Z,1016.32
2019-02-16T11:30:33.280Z,1016.31
2019-02-16T11:31:33.275Z,1016.28
2019-02-16T11:32:33.268Z,1016.29
2019-02-16T11:33:33.258Z,1016.26
2019-02-16T11:34:33.244Z,1016.25
2019-02-16T11:35:33.243Z,1016.28
2019-02-16T11:36:33.241Z,1016.25
2019-02-16T11:37:33.242Z,1016.28
2019-02-16T11:38:33.224Z,1016.28
2019-02-16T11:39:33.214Z,1016.25
2019-02-16T11:40:33.207Z,1016.27
2019-02-16T11:41:33.200Z,1016.26
2019-02-16T11:42:33.192Z,1016.27
2019-02-16T11:43:33.185Z,1016.25
2019-02-16T11:44:33.351Z,1016.26
2019-02-16T11:45:33.180Z,1016.21
2019-02-16T11:46:33.165Z,1016.21
2019-02-16T11:47:33.163Z,1016.20
2019-02-16T11:48:33.152Z,1016.19
2019-02-16T11:49:33.135Z,1016.18
2019-02-16T11:50:33.147Z,1016.12
2019-02-16T11:51:33.163Z,1016.11
2019-02-16T11:52:33.123Z,1016.07
2019-02-16T11:53:33.113Z,1016.09
2019-02-16T11:54:33.107Z,1016.05
2019-02-16T11:55:33.102Z,1016.05
2019-02-16T11:56:33.169Z,1016.07
2019-02-16T11:57:33.083Z,1016.06
2019-02-16T11:58:33.079Z,1016.07
2019-02-16T11:59:33.071Z,1016.02
2019-02-16T12:00:33.074Z,1016.02
2019-02-16T12:01:33.065Z,1016.02
2019-02-16T12:02:39.502Z,1016.02
2019-02-16T12:03:33.052Z,1015.99
2019-02-16T12:04:33.040Z,1015.98
2019-02-16T12:05:33.043Z,1015.98
2019-02-16T12:06:33.027Z,1015.94
2019-02-16T12:07:33.018Z,1015.94
2019-02-16T12:08:33.014Z,1015.91
2019-02-16T12:09:33.002Z,1015.91
2019-02-16T12:10:33.002Z,1015.88
2019-02-16T12:11:32.993Z,1015.87
2019-02-16T12:12:32.983Z,1015.83
2019-02-16T12:13:32.986Z,1015.78
2019-02-16T12:14:32.985Z,1015.74
2019-02-16T12:15:32.966Z,1015.74
2019-02-16T12:16:32.963Z,1015.73
2019-02-16T12:17:32.956Z,1015.71
2019-02-16T12:18:32.943Z,1015.71
2019-02-16T12:19:32.936Z,1015.71
2019-02-16T12:20:33.976Z,1015.69
2019-02-16T12:21:32.927Z,1015.66
2019-02-16T12:22:32.932Z,1015.67
2019-02-16T12:23:32.913Z,1015.66
2019-02-16T12:24:32.906Z,1015.68
2019-02-16T12:25:32.975Z,1015.68
2019-02-16T12:26:32.911Z,1015.67